sensor_id;sensor_type;location;lat;lon;timestamp;P1;durP1;ratioP1;P2;durP2;ratioP2
76865;SDS011;66647;52.124;5.416;2023-11-21T00:02:41;15.40;;;5.32;;
76865;SDS011;66647;52.124;5.416;2023-11-21T00:05:09;11.95;;;5.20;;
76865;SDS011;66647;52.124;5.416;2023-11-21T00:07:37;13.65;;;3.70;;
76865;SDS011;66647;52.124;5.416;2023-11-21T00:10:04;13.60;;;4.90;;
76865;SDS011;66647;52.124;5.416;2023-11-21T00:12:51;12.45;;;5.07;;
76865;SDS011;66647;52.124;5.416;2023-11-21T00:15:17;19.27;;;5.60;;
76865;SDS011;66647;52.124;5.416;2023-11-21T00:17:45;11.65;;;3.88;;
76865;SDS011;66647;52.124;5.416;2023-11-21T00:20:12;16.70;;;5.15;;
76865;SDS011;66647;52.124;5.416;2023-11-21T00:22:40;11.50;;;3.33;;
76865;SDS011;66647;52.124;5.416;2023-11-21T00:25:07;13.93;;;4.88;;
76865;SDS011;66647;52.124;5.416;2023-11-21T00:27:35;12.80;;;3.92;;
76865;SDS011;66647;52.124;5.416;2023-11-21T00:30:02;14.65;;;4.55;;
76865;SDS011;66647;52.124;5.416;2023-11-21T00:32:32;14.68;;;5.55;;
76865;SDS011;66647;52.124;5.416;2023-11-21T00:34:59;9.43;;;3.83;;
76865;SDS011;66647;52.124;5.416;2023-11-21T00:37:27;13.48;;;4.20;;
76865;SDS011;66647;52.124;5.416;2023-11-21T00:39:54;15.20;;;4.03;;
76865;SDS011;66647;52.124;5.416;2023-11-21T00:42:23;15.70;;;4.85;;
76865;SDS011;66647;52.124;5.416;2023-11-21T00:44:50;12.55;;;3.92;;
76865;SDS011;66647;52.124;5.416;2023-11-21T00:47:16;13.20;;;5.80;;
76865;SDS011;66647;52.124;5.416;2023-11-21T00:49:43;14.70;;;3.40;;
76865;SDS011;66647;52.124;5.416;2023-11-21T00:52:10;11.43;;;3.90;;
76865;SDS011;66647;52.124;5.416;2023-11-21T00:54:36;9.65;;;3.45;;
76865;SDS011;66647;52.124;5.416;2023-11-21T00:57:04;11.70;;;4.95;;
76865;SDS011;66647;52.124;5.416;2023-11-21T00:59:30;11.27;;;4.13;;
76865;SDS011;66647;52.124;5.416;2023-11-21T01:01:57;13.38;;;4.07;;
76865;SDS011;66647;52.124;5.416;2023-11-21T01:04:26;11.80;;;3.58;;
76865;SDS011;66647;52.124;5.416;2023-11-21T01:06:53;10.13;;;3.33;;
76865;SDS011;66647;52.124;5.416;2023-11-21T01:09:20;13.60;;;4.90;;
76865;SDS011;66647;52.124;5.416;2023-11-21T01:11:46;9.50;;;4.18;;
76865;SDS011;66647;52.124;5.416;2023-11-21T01:14:13;10.70;;;3.65;;
76865;SDS011;66647;52.124;5.416;2023-11-21T01:16:40;9.98;;;4.90;;
76865;SDS011;66647;52.124;5.416;2023-11-21T01:19:07;10.32;;;3.22;;
76865;SDS011;66647;52.124;5.416;2023-11-21T01:21:36;9.80;;;3.20;;
76865;SDS011;66647;52.124;5.416;2023-11-21T01:24:03;9.88;;;4.38;;
76865;SDS011;66647;52.124;5.416;2023-11-21T01:26:36;7.93;;;2.95;;
76865;SDS011;66647;52.124;5.416;2023-11-21T01:29:02;9.48;;;4.25;;
76865;SDS011;66647;52.124;5.416;2023-11-21T01:31:29;10.70;;;3.53;;
76865;SDS011;66647;52.124;5.416;2023-11-21T01:33:56;12.60;;;2.88;;
76865;SDS011;66647;52.124;5.416;2023-11-21T01:39:01;7.80;;;2.25;;
76865;SDS011;66647;52.124;5.416;2023-11-21T01:41:27;8.65;;;2.80;;
76865;SDS011;66647;52.124;5.416;2023-11-21T01:43:55;8.63;;;4.00;;
76865;SDS011;66647;52.124;5.416;2023-11-21T01:46:22;9.07;;;4.28;;
76865;SDS011;66647;52.124;5.416;2023-11-21T01:48:49;9.13;;;2.78;;
76865;SDS011;66647;52.124;5.416;2023-11-21T01:51:16;7.70;;;3.80;;
76865;SDS011;66647;52.124;5.416;2023-11-21T01:53:44;7.57;;;2.80;;
76865;SDS011;66647;52.124;5.416;2023-11-21T01:56:13;11.15;;;3.78;;
76865;SDS011;66647;52.124;5.416;2023-11-21T01:58:40;7.35;;;2.55;;
76865;SDS011;66647;52.124;5.416;2023-11-21T02:01:08;8.05;;;3.42;;
76865;SDS011;66647;52.124;5.416;2023-11-21T02:03:36;8.38;;;2.30;;
76865;SDS011;66647;52.124;5.416;2023-11-21T02:09:56;6.47;;;2.35;;
76865;SDS011;66647;52.124;5.416;2023-11-21T02:12:23;8.48;;;4.15;;
76865;SDS011;66647;52.124;5.416;2023-11-21T02:14:52;8.35;;;3.42;;
76865;SDS011;66647;52.124;5.416;2023-11-21T02:17:19;6.65;;;3.75;;
76865;SDS011;66647;52.124;5.416;2023-11-21T02:19:46;9.35;;;2.50;;
76865;SDS011;66647;52.124;5.416;2023-11-21T02:22:17;6.40;;;3.75;;
76865;SDS011;66647;52.124;5.416;2023-11-21T02:24:46;6.35;;;2.53;;
76865;SDS011;66647;52.124;5.416;2023-11-21T02:27:13;6.80;;;1.85;;
76865;SDS011;66647;52.124;5.416;2023-11-21T02:29:41;7.03;;;2.13;;
76865;SDS011;66647;52.124;5.416;2023-11-21T02:32:07;8.18;;;2.25;;
76865;SDS011;66647;52.124;5.416;2023-11-21T02:34:37;6.32;;;2.97;;
76865;SDS011;66647;52.124;5.416;2023-11-21T02:37:04;7.18;;;2.33;;
76865;SDS011;66647;52.124;5.416;2023-11-21T02:39:32;10.20;;;2.83;;
76865;SDS011;66647;52.124;5.416;2023-11-21T02:41:58;7.50;;;2.17;;
76865;SDS011;66647;52.124;5.416;2023-11-21T02:44:25;11.05;;;3.40;;
76865;SDS011;66647;52.124;5.416;2023-11-21T02:46:52;12.80;;;3.10;;
76865;SDS011;66647;52.124;5.416;2023-11-21T02:49:19;7.95;;;2.45;;
76865;SDS011;66647;52.124;5.416;2023-11-21T02:51:45;8.77;;;3.60;;
76865;SDS011;66647;52.124;5.416;2023-11-21T02:54:12;8.65;;;2.42;;
76865;SDS011;66647;52.124;5.416;2023-11-21T02:56:39;6.32;;;2.08;;
76865;SDS011;66647;52.124;5.416;2023-11-21T02:59:06;8.77;;;3.35;;
76865;SDS011;66647;52.124;5.416;2023-11-21T03:01:32;8.15;;;2.15;;
76865;SDS011;66647;52.124;5.416;2023-11-21T03:03:59;9.55;;;3.20;;
76865;SDS011;66647;52.124;5.416;2023-11-21T03:06:26;6.68;;;2.90;;
76865;SDS011;66647;52.124;5.416;2023-11-21T03:08:52;9.65;;;4.45;;
76865;SDS011;66647;52.124;5.416;2023-11-21T03:11:19;10.00;;;3.63;;
76865;SDS011;66647;52.124;5.416;2023-11-21T03:13:46;8.27;;;3.25;;
76865;SDS011;66647;52.124;5.416;2023-11-21T03:16:12;9.15;;;2.58;;
76865;SDS011;66647;52.124;5.416;2023-11-21T03:18:39;8.80;;;2.60;;
76865;SDS011;66647;52.124;5.416;2023-11-21T03:21:06;10.70;;;4.25;;
76865;SDS011;66647;52.124;5.416;2023-11-21T03:23:36;7.15;;;1.92;;
76865;SDS011;66647;52.124;5.416;2023-11-21T03:26:03;12.00;;;2.40;;
76865;SDS011;66647;52.124;5.416;2023-11-21T03:28:30;9.35;;;4.05;;
76865;SDS011;66647;52.124;5.416;2023-11-21T03:30:57;8.88;;;4.25;;
76865;SDS011;66647;52.124;5.416;2023-11-21T03:33:26;10.63;;;2.42;;
76865;SDS011;66647;52.124;5.416;2023-11-21T03:35:52;12.15;;;3.10;;
76865;SDS011;66647;52.124;5.416;2023-11-21T03:38:19;11.10;;;2.80;;
76865;SDS011;66647;52.124;5.416;2023-11-21T03:40:46;10.85;;;4.40;;
76865;SDS011;66647;52.124;5.416;2023-11-21T03:43:13;8.30;;;3.50;;
76865;SDS011;66647;52.124;5.416;2023-11-21T03:45:40;10.90;;;2.50;;
76865;SDS011;66647;52.124;5.416;2023-11-21T03:48:08;10.45;;;4.40;;
76865;SDS011;66647;52.124;5.416;2023-11-21T03:50:37;8.80;;;2.83;;
76865;SDS011;66647;52.124;5.416;2023-11-21T03:53:05;7.75;;;2.42;;
76865;SDS011;66647;52.124;5.416;2023-11-21T03:55:32;6.57;;;2.08;;
76865;SDS011;66647;52.124;5.416;2023-11-21T03:57:58;10.27;;;2.17;;
76865;SDS011;66647;52.124;5.416;2023-11-21T04:00:25;8.15;;;3.55;;
76865;SDS011;66647;52.124;5.416;2023-11-21T04:02:55;8.30;;;3.80;;
76865;SDS011;66647;52.124;5.416;2023-11-21T04:05:22;9.68;;;2.50;;
76865;SDS011;66647;52.124;5.416;2023-11-21T04:07:50;7.78;;;3.00;;
76865;SDS011;66647;52.124;5.416;2023-11-21T04:10:19;9.05;;;2.00;;
76865;SDS011;66647;52.124;5.416;2023-11-21T04:12:46;13.77;;;2.95;;
76865;SDS011;66647;52.124;5.416;2023-11-21T04:15:13;6.07;;;1.90;;
76865;SDS011;66647;52.124;5.416;2023-11-21T04:17:41;8.65;;;2.80;;
76865;SDS011;66647;52.124;5.416;2023-11-21T04:20:08;9.13;;;3.50;;
76865;SDS011;66647;52.124;5.416;2023-11-21T04:22:37;9.63;;;3.33;;
76865;SDS011;66647;52.124;5.416;2023-11-21T04:25:10;7.68;;;2.25;;
76865;SDS011;66647;52.124;5.416;2023-11-21T04:27:41;8.82;;;2.25;;
76865;SDS011;66647;52.124;5.416;2023-11-21T04:30:11;9.15;;;3.10;;
76865;SDS011;66647;52.124;5.416;2023-11-21T04:32:39;9.77;;;2.35;;
76865;SDS011;66647;52.124;5.416;2023-11-21T04:35:06;8.52;;;2.92;;
76865;SDS011;66647;52.124;5.416;2023-11-21T04:37:35;9.52;;;3.25;;
76865;SDS011;66647;52.124;5.416;2023-11-21T04:40:02;13.38;;;4.82;;
76865;SDS011;66647;52.124;5.416;2023-11-21T04:42:35;9.00;;;2.80;;
76865;SDS011;66647;52.124;5.416;2023-11-21T04:45:04;8.60;;;2.67;;
76865;SDS011;66647;52.124;5.416;2023-11-21T04:47:35;8.63;;;2.95;;
76865;SDS011;66647;52.124;5.416;2023-11-21T04:50:02;8.90;;;4.13;;
76865;SDS011;66647;52.124;5.416;2023-11-21T04:52:29;7.97;;;2.85;;
76865;SDS011;66647;52.124;5.416;2023-11-21T04:54:56;9.93;;;3.22;;
76865;SDS011;66647;52.124;5.416;2023-11-21T04:57:24;7.00;;;2.78;;
76865;SDS011;66647;52.124;5.416;2023-11-21T04:59:51;9.90;;;3.15;;
76865;SDS011;66647;52.124;5.416;2023-11-21T05:02:17;7.85;;;2.83;;
76865;SDS011;66647;52.124;5.416;2023-11-21T05:05:00;9.80;;;2.80;;
76865;SDS011;66647;52.124;5.416;2023-11-21T05:07:29;10.48;;;3.13;;
76865;SDS011;66647;52.124;5.416;2023-11-21T05:09:58;8.20;;;2.85;;
76865;SDS011;66647;52.124;5.416;2023-11-21T05:12:25;7.47;;;3.65;;
76865;SDS011;66647;52.124;5.416;2023-11-21T05:14:51;11.55;;;3.05;;
76865;SDS011;66647;52.124;5.416;2023-11-21T05:17:18;10.60;;;4.53;;
76865;SDS011;66647;52.124;5.416;2023-11-21T05:19:44;8.65;;;2.92;;
76865;SDS011;66647;52.124;5.416;2023-11-21T05:22:15;11.32;;;3.80;;
76865;SDS011;66647;52.124;5.416;2023-11-21T05:24:41;11.52;;;3.00;;
76865;SDS011;66647;52.124;5.416;2023-11-21T05:27:08;10.57;;;3.25;;
76865;SDS011;66647;52.124;5.416;2023-11-21T05:29:36;11.55;;;2.80;;
76865;SDS011;66647;52.124;5.416;2023-11-21T05:32:04;11.27;;;2.83;;
76865;SDS011;66647;52.124;5.416;2023-11-21T05:34:31;14.07;;;3.50;;
76865;SDS011;66647;52.124;5.416;2023-11-21T05:36:57;11.70;;;3.28;;
76865;SDS011;66647;52.124;5.416;2023-11-21T05:39:24;7.95;;;2.47;;
76865;SDS011;66647;52.124;5.416;2023-11-21T05:41:51;11.07;;;3.33;;
76865;SDS011;66647;52.124;5.416;2023-11-21T05:44:18;10.43;;;2.92;;
76865;SDS011;66647;52.124;5.416;2023-11-21T05:46:44;8.68;;;2.78;;
76865;SDS011;66647;52.124;5.416;2023-11-21T05:49:11;11.25;;;4.20;;
76865;SDS011;66647;52.124;5.416;2023-11-21T05:51:38;10.70;;;3.22;;
76865;SDS011;66647;52.124;5.416;2023-11-21T05:54:05;10.70;;;2.35;;
76865;SDS011;66647;52.124;5.416;2023-11-21T05:56:31;9.65;;;3.20;;
76865;SDS011;66647;52.124;5.416;2023-11-21T05:58:58;7.47;;;2.60;;
76865;SDS011;66647;52.124;5.416;2023-11-21T06:01:26;8.48;;;2.95;;
76865;SDS011;66647;52.124;5.416;2023-11-21T06:03:55;14.02;;;3.08;;
76865;SDS011;66647;52.124;5.416;2023-11-21T06:06:22;8.93;;;2.70;;
76865;SDS011;66647;52.124;5.416;2023-11-21T06:08:50;10.65;;;3.13;;
76865;SDS011;66647;52.124;5.416;2023-11-21T06:11:17;13.85;;;4.28;;
76865;SDS011;66647;52.124;5.416;2023-11-21T06:13:44;11.18;;;3.83;;
76865;SDS011;66647;52.124;5.416;2023-11-21T06:16:10;11.02;;;4.38;;
76865;SDS011;66647;52.124;5.416;2023-11-21T06:18:39;11.05;;;2.85;;
76865;SDS011;66647;52.124;5.416;2023-11-21T06:21:09;11.13;;;3.35;;
76865;SDS011;66647;52.124;5.416;2023-11-21T06:23:36;11.02;;;3.97;;
76865;SDS011;66647;52.124;5.416;2023-11-21T06:26:04;9.95;;;3.72;;
76865;SDS011;66647;52.124;5.416;2023-11-21T06:28:31;12.48;;;4.75;;
76865;SDS011;66647;52.124;5.416;2023-11-21T06:30:58;10.65;;;4.03;;
76865;SDS011;66647;52.124;5.416;2023-11-21T06:33:24;9.98;;;2.83;;
76865;SDS011;66647;52.124;5.416;2023-11-21T06:35:54;9.55;;;2.88;;
76865;SDS011;66647;52.124;5.416;2023-11-21T06:38:21;12.25;;;3.45;;
76865;SDS011;66647;52.124;5.416;2023-11-21T06:40:47;12.77;;;3.88;;
76865;SDS011;66647;52.124;5.416;2023-11-21T06:43:14;10.88;;;3.50;;
76865;SDS011;66647;52.124;5.416;2023-11-21T06:45:41;12.05;;;3.75;;
76865;SDS011;66647;52.124;5.416;2023-11-21T06:48:08;8.82;;;2.90;;
76865;SDS011;66647;52.124;5.416;2023-11-21T06:50:35;10.88;;;2.83;;
76865;SDS011;66647;52.124;5.416;2023-11-21T06:53:01;8.43;;;2.72;;
76865;SDS011;66647;52.124;5.416;2023-11-21T06:55:30;10.48;;;3.40;;
76865;SDS011;66647;52.124;5.416;2023-11-21T06:57:57;9.10;;;3.78;;
76865;SDS011;66647;52.124;5.416;2023-11-21T07:00:24;12.13;;;4.18;;
76865;SDS011;66647;52.124;5.416;2023-11-21T07:02:50;9.95;;;3.65;;
76865;SDS011;66647;52.124;5.416;2023-11-21T07:05:17;13.20;;;4.00;;
76865;SDS011;66647;52.124;5.416;2023-11-21T07:07:48;9.73;;;4.05;;
76865;SDS011;66647;52.124;5.416;2023-11-21T07:10:15;11.07;;;2.90;;
76865;SDS011;66647;52.124;5.416;2023-11-21T07:12:42;9.05;;;3.50;;
76865;SDS011;66647;52.124;5.416;2023-11-21T07:15:09;7.60;;;2.63;;
76865;SDS011;66647;52.124;5.416;2023-11-21T07:17:36;7.95;;;2.25;;
76865;SDS011;66647;52.124;5.416;2023-11-21T07:20:06;6.28;;;2.08;;
76865;SDS011;66647;52.124;5.416;2023-11-21T07:22:33;8.25;;;3.42;;
76865;SDS011;66647;52.124;5.416;2023-11-21T07:25:00;8.57;;;3.08;;
76865;SDS011;66647;52.124;5.416;2023-11-21T07:27:26;11.95;;;3.55;;
76865;SDS011;66647;52.124;5.416;2023-11-21T07:29:53;9.80;;;2.63;;
76865;SDS011;66647;52.124;5.416;2023-11-21T07:32:20;11.13;;;2.85;;
76865;SDS011;66647;52.124;5.416;2023-11-21T07:34:46;12.05;;;2.38;;
76865;SDS011;66647;52.124;5.416;2023-11-21T07:37:13;7.30;;;2.42;;
76865;SDS011;66647;52.124;5.416;2023-11-21T07:39:40;7.07;;;1.90;;
76865;SDS011;66647;52.124;5.416;2023-11-21T07:42:08;11.05;;;3.42;;
76865;SDS011;66647;52.124;5.416;2023-11-21T07:44:35;9.50;;;2.20;;
76865;SDS011;66647;52.124;5.416;2023-11-21T07:47:02;10.82;;;2.35;;
76865;SDS011;66647;52.124;5.416;2023-11-21T07:49:31;8.05;;;1.85;;
76865;SDS011;66647;52.124;5.416;2023-11-21T07:51:57;11.20;;;1.88;;
76865;SDS011;66647;52.124;5.416;2023-11-21T07:54:24;6.90;;;1.92;;
76865;SDS011;66647;52.124;5.416;2023-11-21T07:56:50;7.35;;;2.08;;
76865;SDS011;66647;52.124;5.416;2023-11-21T07:59:17;8.13;;;2.95;;
76865;SDS011;66647;52.124;5.416;2023-11-21T08:01:44;12.75;;;2.28;;
76865;SDS011;66647;52.124;5.416;2023-11-21T08:04:12;8.75;;;1.85;;
76865;SDS011;66647;52.124;5.416;2023-11-21T08:06:41;7.57;;;2.35;;
76865;SDS011;66647;52.124;5.416;2023-11-21T08:09:08;9.20;;;1.70;;
76865;SDS011;66647;52.124;5.416;2023-11-21T08:11:38;6.93;;;1.52;;
76865;SDS011;66647;52.124;5.416;2023-11-21T08:14:05;10.35;;;2.85;;
76865;SDS011;66647;52.124;5.416;2023-11-21T08:16:32;7.20;;;1.30;;
76865;SDS011;66647;52.124;5.416;2023-11-21T08:19:01;7.13;;;1.35;;
76865;SDS011;66647;52.124;5.416;2023-11-21T08:21:29;10.05;;;2.30;;
76865;SDS011;66647;52.124;5.416;2023-11-21T08:23:56;9.43;;;1.25;;
76865;SDS011;66647;52.124;5.416;2023-11-21T08:26:23;8.90;;;2.53;;
76865;SDS011;66647;52.124;5.416;2023-11-21T08:28:49;11.20;;;1.30;;
76865;SDS011;66647;52.124;5.416;2023-11-21T08:31:23;10.35;;;2.33;;
76865;SDS011;66647;52.124;5.416;2023-11-21T08:33:53;6.20;;;1.55;;
76865;SDS011;66647;52.124;5.416;2023-11-21T08:36:22;5.45;;;1.15;;
76865;SDS011;66647;52.124;5.416;2023-11-21T08:38:51;7.32;;;1.83;;
76865;SDS011;66647;52.124;5.416;2023-11-21T08:41:19;10.50;;;1.67;;
76865;SDS011;66647;52.124;5.416;2023-11-21T08:43:49;4.97;;;0.73;;
76865;SDS011;66647;52.124;5.416;2023-11-21T08:46:16;11.00;;;1.30;;
76865;SDS011;66647;52.124;5.416;2023-11-21T08:48:48;7.78;;;1.75;;
76865;SDS011;66647;52.124;5.416;2023-11-21T08:51:20;7.65;;;2.40;;
76865;SDS011;66647;52.124;5.416;2023-11-21T08:53:47;8.43;;;2.22;;
76865;SDS011;66647;52.124;5.416;2023-11-21T08:56:15;7.25;;;1.75;;
76865;SDS011;66647;52.124;5.416;2023-11-21T08:58:42;8.07;;;2.35;;
76865;SDS011;66647;52.124;5.416;2023-11-21T09:01:08;7.07;;;1.55;;
76865;SDS011;66647;52.124;5.416;2023-11-21T09:03:35;10.95;;;2.20;;
76865;SDS011;66647;52.124;5.416;2023-11-21T09:06:04;7.85;;;1.42;;
76865;SDS011;66647;52.124;5.416;2023-11-21T09:08:36;6.50;;;1.67;;
76865;SDS011;66647;52.124;5.416;2023-11-21T09:11:04;8.43;;;2.65;;
76865;SDS011;66647;52.124;5.416;2023-11-21T09:13:32;7.15;;;3.47;;
76865;SDS011;66647;52.124;5.416;2023-11-21T09:16:04;10.82;;;2.75;;
76865;SDS011;66647;52.124;5.416;2023-11-21T09:18:39;11.07;;;4.20;;
76865;SDS011;66647;52.124;5.416;2023-11-21T09:21:08;10.93;;;3.88;;
76865;SDS011;66647;52.124;5.416;2023-11-21T09:23:47;13.93;;;3.65;;
76865;SDS011;66647;52.124;5.416;2023-11-21T09:26:14;7.93;;;2.85;;
76865;SDS011;66647;52.124;5.416;2023-11-21T09:28:45;9.43;;;3.00;;
76865;SDS011;66647;52.124;5.416;2023-11-21T09:31:14;10.00;;;3.55;;
76865;SDS011;66647;52.124;5.416;2023-11-21T09:33:48;13.13;;;3.50;;
76865;SDS011;66647;52.124;5.416;2023-11-21T09:36:18;13.48;;;5.05;;
76865;SDS011;66647;52.124;5.416;2023-11-21T09:38:56;10.00;;;4.45;;
76865;SDS011;66647;52.124;5.416;2023-11-21T09:41:25;12.63;;;3.15;;
76865;SDS011;66647;52.124;5.416;2023-11-21T09:44:06;9.68;;;4.50;;
76865;SDS011;66647;52.124;5.416;2023-11-21T09:46:37;11.45;;;4.20;;
76865;SDS011;66647;52.124;5.416;2023-11-21T09:49:06;11.77;;;4.60;;
76865;SDS011;66647;52.124;5.416;2023-11-21T09:51:39;12.18;;;4.13;;
76865;SDS011;66647;52.124;5.416;2023-11-21T09:54:10;12.40;;;5.05;;
76865;SDS011;66647;52.124;5.416;2023-11-21T09:56:37;12.27;;;5.03;;
76865;SDS011;66647;52.124;5.416;2023-11-21T09:59:05;11.18;;;5.35;;
76865;SDS011;66647;52.124;5.416;2023-11-21T10:01:35;9.73;;;3.45;;
76865;SDS011;66647;52.124;5.416;2023-11-21T10:04:04;10.32;;;3.88;;
76865;SDS011;66647;52.124;5.416;2023-11-21T10:06:32;9.13;;;3.33;;
76865;SDS011;66647;52.124;5.416;2023-11-21T10:08:59;12.63;;;3.08;;
76865;SDS011;66647;52.124;5.416;2023-11-21T10:11:27;12.18;;;4.45;;
76865;SDS011;66647;52.124;5.416;2023-11-21T10:13:56;10.15;;;3.15;;
76865;SDS011;66647;52.124;5.416;2023-11-21T10:16:27;9.25;;;3.33;;
76865;SDS011;66647;52.124;5.416;2023-11-21T10:18:55;10.52;;;3.13;;
76865;SDS011;66647;52.124;5.416;2023-11-21T10:21:39;9.75;;;3.10;;
76865;SDS011;66647;52.124;5.416;2023-11-21T10:24:06;9.25;;;3.05;;
76865;SDS011;66647;52.124;5.416;2023-11-21T10:26:32;9.88;;;2.28;;
76865;SDS011;66647;52.124;5.416;2023-11-21T10:29:16;7.65;;;1.85;;
76865;SDS011;66647;52.124;5.416;2023-11-21T10:31:45;7.85;;;2.30;;
76865;SDS011;66647;52.124;5.416;2023-11-21T10:34:18;6.78;;;1.75;;
76865;SDS011;66647;52.124;5.416;2023-11-21T10:36:46;6.80;;;1.52;;
76865;SDS011;66647;52.124;5.416;2023-11-21T10:39:19;6.07;;;1.92;;
76865;SDS011;66647;52.124;5.416;2023-11-21T10:41:49;8.00;;;2.88;;
76865;SDS011;66647;52.124;5.416;2023-11-21T10:44:17;9.40;;;3.85;;
76865;SDS011;66647;52.124;5.416;2023-11-21T10:46:51;8.32;;;2.47;;
76865;SDS011;66647;52.124;5.416;2023-11-21T10:49:23;8.25;;;2.30;;
76865;SDS011;66647;52.124;5.416;2023-11-21T10:51:52;9.10;;;2.28;;
76865;SDS011;66647;52.124;5.416;2023-11-21T10:57:06;6.70;;;1.92;;
76865;SDS011;66647;52.124;5.416;2023-11-21T10:59:34;6.97;;;2.60;;
76865;SDS011;66647;52.124;5.416;2023-11-21T11:02:08;6.72;;;2.20;;
76865;SDS011;66647;52.124;5.416;2023-11-21T11:04:48;11.30;;;3.13;;
76865;SDS011;66647;52.124;5.416;2023-11-21T11:07:16;10.65;;;2.47;;
76865;SDS011;66647;52.124;5.416;2023-11-21T11:09:43;9.50;;;3.40;;
76865;SDS011;66647;52.124;5.416;2023-11-21T11:12:11;7.82;;;2.28;;
76865;SDS011;66647;52.124;5.416;2023-11-21T11:14:40;9.65;;;3.75;;
76865;SDS011;66647;52.124;5.416;2023-11-21T11:17:07;9.43;;;2.70;;
76865;SDS011;66647;52.124;5.416;2023-11-21T11:19:36;10.50;;;2.75;;
76865;SDS011;66647;52.124;5.416;2023-11-21T11:28:07;9.50;;;4.65;;
76865;SDS011;66647;52.124;5.416;2023-11-21T11:30:47;8.18;;;2.30;;
76865;SDS011;66647;52.124;5.416;2023-11-21T11:33:21;9.10;;;2.47;;
76865;SDS011;66647;52.124;5.416;2023-11-21T11:38:34;9.05;;;3.17;;
76865;SDS011;66647;52.124;5.416;2023-11-21T11:41:02;8.50;;;3.28;;
76865;SDS011;66647;52.124;5.416;2023-11-21T11:43:30;8.30;;;2.28;;
76865;SDS011;66647;52.124;5.416;2023-11-21T11:46:10;8.20;;;3.50;;
76865;SDS011;66647;52.124;5.416;2023-11-21T11:48:39;14.20;;;5.25;;
76865;SDS011;66647;52.124;5.416;2023-11-21T11:51:15;10.52;;;4.70;;
76865;SDS011;66647;52.124;5.416;2023-11-21T11:53:47;10.27;;;3.70;;
76865;SDS011;66647;52.124;5.416;2023-11-21T11:56:19;7.63;;;2.50;;
76865;SDS011;66647;52.124;5.416;2023-11-21T11:59:01;8.80;;;3.13;;
76865;SDS011;66647;52.124;5.416;2023-11-21T12:01:56;10.38;;;3.58;;
76865;SDS011;66647;52.124;5.416;2023-11-21T12:04:24;9.43;;;3.33;;
76865;SDS011;66647;52.124;5.416;2023-11-21T12:06:59;9.27;;;3.80;;
76865;SDS011;66647;52.124;5.416;2023-11-21T12:09:28;9.90;;;3.63;;
76865;SDS011;66647;52.124;5.416;2023-11-21T12:11:57;8.55;;;3.55;;
76865;SDS011;66647;52.124;5.416;2023-11-21T12:14:24;11.35;;;4.95;;
76865;SDS011;66647;52.124;5.416;2023-11-21T12:16:52;10.30;;;3.63;;
76865;SDS011;66647;52.124;5.416;2023-11-21T12:19:21;10.75;;;4.13;;
76865;SDS011;66647;52.124;5.416;2023-11-21T12:21:49;11.73;;;3.80;;
76865;SDS011;66647;52.124;5.416;2023-11-21T12:24:37;10.93;;;5.47;;
76865;SDS011;66647;52.124;5.416;2023-11-21T12:27:05;15.70;;;4.60;;
76865;SDS011;66647;52.124;5.416;2023-11-21T12:29:51;11.85;;;3.72;;
76865;SDS011;66647;52.124;5.416;2023-11-21T12:32:19;10.82;;;5.68;;
76865;SDS011;66647;52.124;5.416;2023-11-21T12:34:47;12.18;;;3.88;;
76865;SDS011;66647;52.124;5.416;2023-11-21T12:37:14;10.85;;;3.45;;
76865;SDS011;66647;52.124;5.416;2023-11-21T12:39:41;12.18;;;4.88;;
76865;SDS011;66647;52.124;5.416;2023-11-21T12:42:08;12.82;;;4.75;;
76865;SDS011;66647;52.124;5.416;2023-11-21T12:44:36;12.75;;;5.72;;
76865;SDS011;66647;52.124;5.416;2023-11-21T12:47:07;11.88;;;4.18;;
76865;SDS011;66647;52.124;5.416;2023-11-21T12:49:40;11.95;;;4.35;;
76865;SDS011;66647;52.124;5.416;2023-11-21T12:52:10;14.25;;;4.55;;
76865;SDS011;66647;52.124;5.416;2023-11-21T12:54:37;12.48;;;5.35;;
76865;SDS011;66647;52.124;5.416;2023-11-21T12:57:04;11.93;;;5.38;;
76865;SDS011;66647;52.124;5.416;2023-11-21T12:59:34;13.07;;;5.82;;
76865;SDS011;66647;52.124;5.416;2023-11-21T13:02:01;13.35;;;5.53;;
76865;SDS011;66647;52.124;5.416;2023-11-21T13:04:32;13.77;;;6.03;;
76865;SDS011;66647;52.124;5.416;2023-11-21T13:07:04;12.45;;;4.43;;
76865;SDS011;66647;52.124;5.416;2023-11-21T13:09:40;13.30;;;4.50;;
76865;SDS011;66647;52.124;5.416;2023-11-21T13:12:11;12.38;;;4.95;;
76865;SDS011;66647;52.124;5.416;2023-11-21T13:14:40;10.43;;;3.58;;
76865;SDS011;66647;52.124;5.416;2023-11-21T13:17:08;11.70;;;3.80;;
76865;SDS011;66647;52.124;5.416;2023-11-21T13:19:40;9.38;;;3.53;;
76865;SDS011;66647;52.124;5.416;2023-11-21T13:22:11;9.63;;;2.85;;
76865;SDS011;66647;52.124;5.416;2023-11-21T13:24:38;11.68;;;3.55;;
76865;SDS011;66647;52.124;5.416;2023-11-21T13:27:05;6.90;;;2.22;;
76865;SDS011;66647;52.124;5.416;2023-11-21T13:29:33;5.28;;;1.35;;
76865;SDS011;66647;52.124;5.416;2023-11-21T13:32:01;6.38;;;2.03;;
76865;SDS011;66647;52.124;5.416;2023-11-21T13:34:29;6.18;;;1.15;;
76865;SDS011;66647;52.124;5.416;2023-11-21T13:39:29;3.83;;;1.40;;
76865;SDS011;66647;52.124;5.416;2023-11-21T13:41:58;4.82;;;0.30;;
76865;SDS011;66647;52.124;5.416;2023-11-21T13:44:25;3.80;;;0.57;;
76865;SDS011;66647;52.124;5.416;2023-11-21T13:47:01;5.00;;;0.60;;
76865;SDS011;66647;52.124;5.416;2023-11-21T13:49:28;5.28;;;1.95;;
76865;SDS011;66647;52.124;5.416;2023-11-21T13:51:58;7.53;;;2.33;;
76865;SDS011;66647;52.124;5.416;2023-11-21T13:54:26;6.57;;;2.05;;
76865;SDS011;66647;52.124;5.416;2023-11-21T13:56:53;8.60;;;3.75;;
76865;SDS011;66647;52.124;5.416;2023-11-21T13:59:21;7.85;;;3.25;;
76865;SDS011;66647;52.124;5.416;2023-11-21T14:04:24;13.20;;;4.33;;
76865;SDS011;66647;52.124;5.416;2023-11-21T14:07:03;9.43;;;4.15;;
76865;SDS011;66647;52.124;5.416;2023-11-21T14:09:47;9.70;;;2.65;;
76865;SDS011;66647;52.124;5.416;2023-11-21T14:12:15;11.35;;;3.70;;
76865;SDS011;66647;52.124;5.416;2023-11-21T14:14:42;11.23;;;3.60;;
76865;SDS011;66647;52.124;5.416;2023-11-21T14:17:10;13.18;;;4.45;;
76865;SDS011;66647;52.124;5.416;2023-11-21T14:19:37;14.43;;;4.70;;
76865;SDS011;66647;52.124;5.416;2023-11-21T14:22:10;15.45;;;5.30;;
76865;SDS011;66647;52.124;5.416;2023-11-21T14:24:37;15.55;;;4.45;;
76865;SDS011;66647;52.124;5.416;2023-11-21T14:27:03;11.45;;;4.50;;
76865;SDS011;66647;52.124;5.416;2023-11-21T14:29:31;13.63;;;4.78;;
76865;SDS011;66647;52.124;5.416;2023-11-21T14:32:03;13.23;;;4.43;;
76865;SDS011;66647;52.124;5.416;2023-11-21T14:34:30;13.05;;;4.63;;
76865;SDS011;66647;52.124;5.416;2023-11-21T14:36:57;13.70;;;6.07;;
76865;SDS011;66647;52.124;5.416;2023-11-21T14:39:23;14.18;;;4.75;;
76865;SDS011;66647;52.124;5.416;2023-11-21T14:41:52;13.70;;;5.93;;
76865;SDS011;66647;52.124;5.416;2023-11-21T14:44:22;12.40;;;4.93;;
76865;SDS011;66647;52.124;5.416;2023-11-21T14:46:52;14.00;;;4.30;;
76865;SDS011;66647;52.124;5.416;2023-11-21T14:49:24;12.77;;;4.78;;
76865;SDS011;66647;52.124;5.416;2023-11-21T14:51:53;14.05;;;4.68;;
76865;SDS011;66647;52.124;5.416;2023-11-21T14:54:30;14.55;;;6.47;;
76865;SDS011;66647;52.124;5.416;2023-11-21T14:57:08;15.45;;;6.57;;
76865;SDS011;66647;52.124;5.416;2023-11-21T14:59:44;15.55;;;5.53;;
76865;SDS011;66647;52.124;5.416;2023-11-21T15:02:18;13.20;;;5.72;;
76865;SDS011;66647;52.124;5.416;2023-11-21T15:05:11;13.40;;;5.80;;
76865;SDS011;66647;52.124;5.416;2023-11-21T15:07:43;13.15;;;4.22;;
76865;SDS011;66647;52.124;5.416;2023-11-21T15:10:13;15.00;;;7.05;;
76865;SDS011;66647;52.124;5.416;2023-11-21T15:12:45;12.07;;;4.57;;
76865;SDS011;66647;52.124;5.416;2023-11-21T15:15:11;13.02;;;4.07;;